JST986 YSSY-YPPH
Flight info
| Callsign | JST986 |
|---|---|
| Flight time | 4h 42m |
| Altitude | 34000 |
| Route | DCT KADOM H44 BORLI Q32 NODEV Q10 MALUP Q158 KABLI DCT |
| Aircraft | A21N/M-SADE3FGHIJ3J4J5RWYZ/LB1D1 |
Departure
| Time | 2026-04-22 02:28 |
|---|---|
| Airport | Sydney Kingsford Smith International Airport (YSSY) |
Arrival
| Time | 2026-04-22 07:10 |
|---|---|
| Airport | Perth International Airport (YPPH) |
| Time | Latitude | Longitude | Altitude | Speed | Heading |
|---|---|---|---|---|---|
| 2026-04-22 02:02 | -33.93411 | 151.17709 | 35 ft | 0 kts | 99° |
| 2026-04-22 02:20 | -33.93409 | 151.17695 | 35 ft | 3 kts | 99° |
| 2026-04-22 02:20 | -33.93405 | 151.17671 | 58 ft | 3 kts | 99° |
| 2026-04-22 02:20 | -33.93402 | 151.17647 | 35 ft | 3 kts | 101° |
| 2026-04-22 02:20 | -33.93397 | 151.17624 | 35 ft | 3 kts | 107° |
| 2026-04-22 02:21 | -33.93390 | 151.17602 | 35 ft | 3 kts | 127° |
| 2026-04-22 02:21 | -33.93379 | 151.17590 | 35 ft | 2 kts | 166° |
| 2026-04-22 02:21 | -33.93376 | 151.17589 | 35 ft | 0 kts | 171° |
| 2026-04-22 02:25 | -33.93377 | 151.17589 | 35 ft | 1 kts | 171° |
| 2026-04-22 02:25 | -33.93390 | 151.17592 | 35 ft | 3 kts | 171° |
| 2026-04-22 02:26 | -33.93417 | 151.17595 | 35 ft | 5 kts | 187° |
| 2026-04-22 02:26 | -33.93450 | 151.17567 | 35 ft | 7 kts | 240° |
| 2026-04-22 02:26 | -33.93468 | 151.17503 | 35 ft | 9 kts | 256° |
| 2026-04-22 02:26 | -33.93485 | 151.17428 | 34 ft | 10 kts | 254° |
| 2026-04-22 02:27 | -33.93500 | 151.17348 | 32 ft | 10 kts | 261° |
| 2026-04-22 02:27 | -33.93551 | 151.17320 | 32 ft | 11 kts | 164° |
| 2026-04-22 02:27 | -33.93633 | 151.17341 | 32 ft | 21 kts | 169° |
| 2026-04-22 02:27 | -33.94039 | 151.17444 | 31 ft | 96 kts | 168° |
| 2026-04-22 02:28 | -33.94891 | 151.17666 | 35 ft | 153 kts | 168° |
| 2026-04-22 02:28 | -33.95985 | 151.17953 | 471 ft | 162 kts | 165° |
| 2026-04-22 02:28 | -33.97119 | 151.18201 | 1041 ft | 174 kts | 181° |
| 2026-04-22 02:28 | -33.98379 | 151.18026 | 1467 ft | 190 kts | 185° |
| 2026-04-22 02:29 | -33.99775 | 151.17849 | 1790 ft | 216 kts | 186° |
| 2026-04-22 02:29 | -34.01346 | 151.17664 | 2169 ft | 234 kts | 185° |
| 2026-04-22 02:29 | -34.03002 | 151.17568 | 2830 ft | 243 kts | 173° |
| 2026-04-22 02:29 | -34.04648 | 151.18021 | 3586 ft | 248 kts | 164° |
| 2026-04-22 02:30 | -34.06302 | 151.18609 | 4396 ft | 249 kts | 163° |
| 2026-04-22 02:30 | -34.07995 | 151.19207 | 5170 ft | 253 kts | 164° |
| 2026-04-22 02:30 | -34.09725 | 151.19806 | 5614 ft | 268 kts | 163° |
| 2026-04-22 02:30 | -34.11585 | 151.20384 | 5996 ft | 285 kts | 171° |
| 2026-04-22 02:31 | -34.13617 | 151.20210 | 6337 ft | 303 kts | 195° |
| 2026-04-22 02:31 | -34.15497 | 151.18961 | 6834 ft | 317 kts | 220° |
| 2026-04-22 02:31 | -34.16796 | 151.16789 | 7435 ft | 327 kts | 245° |
| 2026-04-22 02:31 | -34.17203 | 151.14068 | 8124 ft | 337 kts | 271° |
| 2026-04-22 02:32 | -34.16596 | 151.11323 | 8846 ft | 344 kts | 297° |
| 2026-04-22 02:32 | -34.15275 | 151.08879 | 9575 ft | 350 kts | 306° |
| 2026-04-22 02:32 | -34.13836 | 151.06466 | 10273 ft | 356 kts | 305° |
| 2026-04-22 02:32 | -34.12405 | 151.04014 | 10942 ft | 359 kts | 304° |
| 2026-04-22 02:33 | -34.10986 | 151.01517 | 11636 ft | 363 kts | 304° |
| 2026-04-22 02:33 | -34.09563 | 150.98980 | 12293 ft | 367 kts | 303° |
| 2026-04-22 02:33 | -34.08134 | 150.96404 | 12944 ft | 371 kts | 303° |
| 2026-04-22 02:33 | -34.06696 | 150.93798 | 13606 ft | 375 kts | 303° |
| 2026-04-22 02:34 | -34.05258 | 150.91205 | 14233 ft | 379 kts | 303° |
| 2026-04-22 02:34 | -34.03770 | 150.88516 | 14834 ft | 382 kts | 302° |
| 2026-04-22 02:34 | -34.02290 | 150.85841 | 15412 ft | 386 kts | 302° |
| 2026-04-22 02:34 | -34.00794 | 150.83135 | 15979 ft | 390 kts | 302° |
| 2026-04-22 02:35 | -33.99283 | 150.80404 | 16542 ft | 394 kts | 302° |
| 2026-04-22 02:35 | -33.97773 | 150.77686 | 17083 ft | 397 kts | 302° |
| 2026-04-22 02:35 | -33.96229 | 150.74904 | 17608 ft | 401 kts | 302° |
| 2026-04-22 02:35 | -33.94667 | 150.72096 | 18160 ft | 405 kts | 302° |
| 2026-04-22 02:36 | -33.93087 | 150.69261 | 18693 ft | 409 kts | 302° |
| 2026-04-22 02:36 | -33.91500 | 150.66407 | 19176 ft | 412 kts | 301° |
| 2026-04-22 02:36 | -33.89902 | 150.63540 | 19665 ft | 414 kts | 301° |
| 2026-04-22 02:36 | -33.88293 | 150.60658 | 20160 ft | 415 kts | 301° |
| 2026-04-22 02:37 | -33.86678 | 150.57765 | 20654 ft | 417 kts | 301° |
| 2026-04-22 02:37 | -33.85051 | 150.54854 | 21125 ft | 419 kts | 301° |
| 2026-04-22 02:37 | -33.83420 | 150.51938 | 21610 ft | 421 kts | 300° |
| 2026-04-22 02:37 | -33.81785 | 150.49009 | 22098 ft | 424 kts | 300° |
| 2026-04-22 02:38 | -33.80133 | 150.46055 | 22559 ft | 426 kts | 300° |
| 2026-04-22 02:38 | -33.78477 | 150.43100 | 23059 ft | 427 kts | 300° |
| 2026-04-22 02:38 | -33.76819 | 150.40128 | 23555 ft | 428 kts | 300° |
| 2026-04-22 02:38 | -33.75154 | 150.37149 | 24011 ft | 430 kts | 300° |
| 2026-04-22 02:39 | -33.73502 | 150.34139 | 24413 ft | 430 kts | 296° |
| 2026-04-22 02:39 | -33.72217 | 150.30925 | 24796 ft | 425 kts | 284° |
| 2026-04-22 02:39 | -33.71557 | 150.27543 | 25160 ft | 419 kts | 271° |
| 2026-04-22 02:39 | -33.71527 | 150.24077 | 25526 ft | 414 kts | 260° |
| 2026-04-22 02:40 | -33.71832 | 150.20636 | 25895 ft | 414 kts | 258° |
| 2026-04-22 02:40 | -33.72178 | 150.17205 | 26235 ft | 415 kts | 258° |
| 2026-04-22 02:40 | -33.72511 | 150.13752 | 26577 ft | 417 kts | 259° |
| 2026-04-22 02:40 | -33.72830 | 150.10263 | 26896 ft | 420 kts | 260° |
| 2026-04-22 02:41 | -33.73136 | 150.06775 | 27262 ft | 421 kts | 260° |
| 2026-04-22 02:41 | -33.73439 | 150.03276 | 27607 ft | 422 kts | 260° |
| 2026-04-22 02:41 | -33.73738 | 149.99762 | 27943 ft | 423 kts | 260° |
| 2026-04-22 02:41 | -33.74036 | 149.96243 | 28272 ft | 424 kts | 260° |
| 2026-04-22 02:42 | -33.74333 | 149.92712 | 28580 ft | 425 kts | 260° |
| 2026-04-22 02:42 | -33.74634 | 149.89168 | 28886 ft | 427 kts | 260° |
| 2026-04-22 02:42 | -33.74936 | 149.85609 | 29188 ft | 428 kts | 260° |
| 2026-04-22 02:42 | -33.75238 | 149.82051 | 29490 ft | 429 kts | 260° |
| 2026-04-22 02:43 | -33.75540 | 149.78472 | 29810 ft | 430 kts | 261° |
| 2026-04-22 02:43 | -33.75839 | 149.74880 | 30065 ft | 432 kts | 261° |
| 2026-04-22 02:43 | -33.76141 | 149.71278 | 30319 ft | 434 kts | 261° |
| 2026-04-22 02:43 | -33.76441 | 149.67666 | 30545 ft | 435 kts | 261° |
| 2026-04-22 02:44 | -33.76741 | 149.64047 | 30771 ft | 436 kts | 261° |
| 2026-04-22 02:44 | -33.77043 | 149.60415 | 31027 ft | 436 kts | 261° |
| 2026-04-22 02:44 | -33.77337 | 149.56828 | 31323 ft | 434 kts | 261° |
| 2026-04-22 02:44 | -33.77632 | 149.53226 | 31639 ft | 432 kts | 261° |
| 2026-04-22 02:45 | -33.77925 | 149.49640 | 31929 ft | 431 kts | 261° |
| 2026-04-22 02:45 | -33.78214 | 149.46060 | 32228 ft | 429 kts | 261° |
| 2026-04-22 02:45 | -33.78499 | 149.42503 | 32514 ft | 427 kts | 261° |
| 2026-04-22 02:45 | -33.78787 | 149.38944 | 32787 ft | 426 kts | 261° |
| 2026-04-22 02:46 | -33.79075 | 149.35405 | 33045 ft | 425 kts | 261° |
| 2026-04-22 02:46 | -33.79360 | 149.31867 | 33299 ft | 424 kts | 261° |
| 2026-04-22 02:46 | -33.79642 | 149.28339 | 33544 ft | 423 kts | 261° |
| 2026-04-22 02:46 | -33.79921 | 149.24831 | 33780 ft | 421 kts | 261° |
| 2026-04-22 02:47 | -33.80196 | 149.21327 | 34001 ft | 420 kts | 261° |
| 2026-04-22 02:47 | -33.80473 | 149.17835 | 34216 ft | 419 kts | 261° |
| 2026-04-22 02:47 | -33.80752 | 149.14341 | 34377 ft | 419 kts | 261° |
| 2026-04-22 02:48 | -33.81304 | 149.07374 | 34358 ft | 418 kts | 261° |
| 2026-04-22 02:48 | -33.81845 | 149.00455 | 34341 ft | 418 kts | 261° |
| 2026-04-22 02:49 | -33.82373 | 148.93502 | 34353 ft | 418 kts | 261° |
| 2026-04-22 02:49 | -33.82903 | 148.86536 | 34343 ft | 418 kts | 261° |
| 2026-04-22 02:50 | -33.83437 | 148.79563 | 34342 ft | 418 kts | 261° |
| 2026-04-22 02:50 | -33.83959 | 148.72600 | 34342 ft | 418 kts | 262° |
| 2026-04-22 02:51 | -33.84503 | 148.65647 | 34344 ft | 416 kts | 259° |
| 2026-04-22 02:51 | -33.85581 | 148.58815 | 34346 ft | 415 kts | 256° |
| 2026-04-22 02:52 | -33.86732 | 148.51999 | 34346 ft | 416 kts | 256° |
| 2026-04-22 02:52 | -33.87869 | 148.45172 | 34343 ft | 416 kts | 256° |
| 2026-04-22 02:53 | -33.88987 | 148.38391 | 34360 ft | 415 kts | 256° |
| 2026-04-22 02:53 | -33.89932 | 148.32676 | 34348 ft | 415 kts | 256° |
| 2026-04-22 02:54 | -33.91064 | 148.25862 | 34348 ft | 415 kts | 256° |
| 2026-04-22 02:54 | -33.92176 | 148.19078 | 34331 ft | 415 kts | 257° |
| 2026-04-22 02:55 | -33.93283 | 148.12282 | 34340 ft | 414 kts | 257° |
| 2026-04-22 02:55 | -33.94392 | 148.05464 | 34347 ft | 414 kts | 257° |
| 2026-04-22 02:56 | -33.95498 | 147.98654 | 34353 ft | 415 kts | 257° |
| 2026-04-22 02:56 | -33.96587 | 147.91904 | 34337 ft | 413 kts | 257° |
| 2026-04-22 02:57 | -33.97682 | 147.85112 | 34345 ft | 413 kts | 257° |
| 2026-04-22 02:57 | -33.98772 | 147.78314 | 34347 ft | 413 kts | 257° |
| 2026-04-22 02:58 | -33.99855 | 147.71506 | 34348 ft | 413 kts | 257° |
| 2026-04-22 02:58 | -34.00926 | 147.64745 | 34339 ft | 413 kts | 258° |
| 2026-04-22 02:59 | -34.02002 | 147.57943 | 34347 ft | 412 kts | 258° |
| 2026-04-22 02:59 | -34.03079 | 147.51133 | 34347 ft | 414 kts | 258° |
| 2026-04-22 03:00 | -34.04151 | 147.44304 | 34349 ft | 414 kts | 258° |
| 2026-04-22 03:00 | -34.05221 | 147.37479 | 34341 ft | 414 kts | 258° |
| 2026-04-22 03:01 | -34.06287 | 147.30656 | 34353 ft | 414 kts | 258° |
| 2026-04-22 03:01 | -34.07344 | 147.23877 | 34351 ft | 414 kts | 258° |
| 2026-04-22 03:02 | -34.08395 | 147.17056 | 34349 ft | 414 kts | 258° |
| 2026-04-22 03:02 | -34.09454 | 147.10223 | 34346 ft | 414 kts | 259° |
| 2026-04-22 03:03 | -34.10513 | 147.03363 | 34362 ft | 416 kts | 259° |
| 2026-04-22 03:03 | -34.11563 | 146.96488 | 34359 ft | 416 kts | 259° |
| 2026-04-22 03:04 | -34.12615 | 146.89614 | 34353 ft | 416 kts | 259° |
| 2026-04-22 03:04 | -34.13649 | 146.82778 | 34335 ft | 418 kts | 259° |
| 2026-04-22 03:05 | -34.14700 | 146.75845 | 34353 ft | 420 kts | 259° |
| 2026-04-22 03:05 | -34.15750 | 146.68890 | 34351 ft | 420 kts | 259° |
| 2026-04-22 03:06 | -34.16791 | 146.61943 | 34348 ft | 420 kts | 259° |
| 2026-04-22 03:06 | -34.17834 | 146.55001 | 34356 ft | 419 kts | 259° |
| 2026-04-22 03:07 | -34.18872 | 146.48059 | 34348 ft | 419 kts | 259° |
| 2026-04-22 03:07 | -34.19894 | 146.41158 | 34348 ft | 419 kts | 259° |
| 2026-04-22 03:08 | -34.20919 | 146.34222 | 34347 ft | 419 kts | 259° |
| 2026-04-22 03:08 | -34.21946 | 146.27255 | 34344 ft | 422 kts | 260° |
| 2026-04-22 03:09 | -34.22968 | 146.20261 | 34347 ft | 422 kts | 260° |
| 2026-04-22 03:09 | -34.23978 | 146.13325 | 34347 ft | 422 kts | 260° |
| 2026-04-22 03:10 | -34.24935 | 146.06324 | 34348 ft | 422 kts | 264° |
| 2026-04-22 03:10 | -34.25226 | 145.99229 | 34344 ft | 422 kts | 267° |
| 2026-04-22 03:11 | -34.25443 | 145.92141 | 34342 ft | 422 kts | 267° |
| 2026-04-22 03:11 | -34.25663 | 145.85046 | 34343 ft | 422 kts | 267° |
| 2026-04-22 03:12 | -34.25879 | 145.77957 | 34344 ft | 422 kts | 267° |
| 2026-04-22 03:12 | -34.26198 | 145.67434 | 34343 ft | 419 kts | 267° |
| 2026-04-22 03:13 | -34.26402 | 145.60384 | 34342 ft | 419 kts | 267° |
| 2026-04-22 03:13 | -34.26605 | 145.53339 | 34340 ft | 419 kts | 267° |
| 2026-04-22 03:14 | -34.26805 | 145.46307 | 34345 ft | 418 kts | 268° |
| 2026-04-22 03:14 | -34.27000 | 145.39278 | 34343 ft | 418 kts | 268° |
| 2026-04-22 03:15 | -34.27193 | 145.32250 | 34340 ft | 418 kts | 268° |
| 2026-04-22 03:15 | -34.27380 | 145.25232 | 34337 ft | 417 kts | 268° |
| 2026-04-22 03:16 | -34.27563 | 145.18278 | 34340 ft | 416 kts | 268° |
| 2026-04-22 03:16 | -34.27740 | 145.11289 | 34340 ft | 416 kts | 268° |
| 2026-04-22 03:17 | -34.27915 | 145.04287 | 34337 ft | 416 kts | 268° |
| 2026-04-22 03:17 | -34.28083 | 144.97292 | 34342 ft | 416 kts | 268° |
| 2026-04-22 03:18 | -34.28249 | 144.90306 | 34338 ft | 416 kts | 268° |
| 2026-04-22 03:18 | -34.28410 | 144.83311 | 34340 ft | 416 kts | 269° |
| 2026-04-22 03:19 | -34.28568 | 144.76312 | 34337 ft | 416 kts | 269° |
| 2026-04-22 03:19 | -34.28723 | 144.69341 | 34336 ft | 418 kts | 269° |
| 2026-04-22 03:20 | -34.28874 | 144.62318 | 34336 ft | 418 kts | 269° |
| 2026-04-22 03:20 | -34.29018 | 144.55289 | 34336 ft | 418 kts | 269° |
| 2026-04-22 03:21 | -34.29163 | 144.48254 | 34338 ft | 420 kts | 269° |
| 2026-04-22 03:21 | -34.29303 | 144.41192 | 34335 ft | 420 kts | 269° |
| 2026-04-22 03:22 | -34.29440 | 144.34119 | 34336 ft | 421 kts | 269° |
| 2026-04-22 03:22 | -34.29570 | 144.27050 | 34338 ft | 421 kts | 269° |
| 2026-04-22 03:23 | -34.29699 | 144.19941 | 34333 ft | 424 kts | 269° |
| 2026-04-22 03:23 | -34.29824 | 144.12794 | 34333 ft | 425 kts | 269° |
| 2026-04-22 03:24 | -34.29947 | 144.05647 | 34333 ft | 425 kts | 269° |
| 2026-04-22 03:24 | -34.30059 | 143.98510 | 34333 ft | 425 kts | 269° |
| 2026-04-22 03:25 | -34.30170 | 143.91409 | 34334 ft | 425 kts | 269° |
| 2026-04-22 03:25 | -34.30279 | 143.84258 | 34334 ft | 425 kts | 269° |
| 2026-04-22 03:26 | -34.30384 | 143.77107 | 34333 ft | 425 kts | 269° |
| 2026-04-22 03:26 | -34.30480 | 143.69953 | 34333 ft | 426 kts | 270° |
| 2026-04-22 03:27 | -34.30575 | 143.62782 | 34332 ft | 427 kts | 270° |
| 2026-04-22 03:27 | -34.30672 | 143.55595 | 34330 ft | 427 kts | 270° |
| 2026-04-22 03:28 | -34.30759 | 143.48416 | 34329 ft | 426 kts | 270° |
| 2026-04-22 03:28 | -34.30843 | 143.41295 | 34328 ft | 423 kts | 270° |
| 2026-04-22 03:29 | -34.30919 | 143.34188 | 34322 ft | 423 kts | 270° |
| 2026-04-22 03:29 | -34.30992 | 143.27123 | 34322 ft | 423 kts | 270° |
| 2026-04-22 03:30 | -34.31063 | 143.20008 | 34324 ft | 423 kts | 270° |
| 2026-04-22 03:30 | -34.31129 | 143.12893 | 34324 ft | 423 kts | 270° |
| 2026-04-22 03:31 | -34.31195 | 143.05770 | 34328 ft | 423 kts | 270° |
| 2026-04-22 03:31 | -34.31251 | 142.98642 | 34321 ft | 426 kts | 270° |
| 2026-04-22 03:32 | -34.31308 | 142.91469 | 34322 ft | 427 kts | 270° |
| 2026-04-22 03:32 | -34.31358 | 142.84289 | 34319 ft | 427 kts | 270° |
| 2026-04-22 03:33 | -34.31405 | 142.77101 | 34319 ft | 427 kts | 271° |
| 2026-04-22 03:33 | -34.31444 | 142.69924 | 34318 ft | 427 kts | 270° |
| 2026-04-22 03:34 | -34.31482 | 142.62744 | 34316 ft | 427 kts | 270° |
| 2026-04-22 03:34 | -34.31514 | 142.55568 | 34316 ft | 427 kts | 270° |
| 2026-04-22 03:35 | -34.31546 | 142.48439 | 34316 ft | 425 kts | 270° |
| 2026-04-22 03:35 | -34.31572 | 142.41287 | 34312 ft | 425 kts | 270° |
| 2026-04-22 03:36 | -34.31591 | 142.34139 | 34314 ft | 425 kts | 270° |
| 2026-04-22 03:36 | -34.31605 | 142.26986 | 34308 ft | 425 kts | 270° |
| 2026-04-22 03:37 | -34.31618 | 142.19847 | 34308 ft | 424 kts | 270° |
| 2026-04-22 03:37 | -34.31628 | 142.12696 | 34308 ft | 424 kts | 270° |
| 2026-04-22 03:38 | -34.31635 | 142.05556 | 34305 ft | 424 kts | 270° |
| 2026-04-22 03:38 | -34.31636 | 141.99622 | 34301 ft | 425 kts | 269° |
| 2026-04-22 03:39 | -34.31636 | 141.91307 | 34301 ft | 425 kts | 269° |
| 2026-04-22 03:39 | -34.31619 | 141.84139 | 34302 ft | 425 kts | 269° |
| 2026-04-22 03:40 | -34.31607 | 141.78189 | 34297 ft | 425 kts | 269° |
| 2026-04-22 03:40 | -34.31592 | 141.71033 | 34298 ft | 425 kts | 269° |
| 2026-04-22 03:41 | -34.31573 | 141.63877 | 34295 ft | 425 kts | 269° |
| 2026-04-22 03:41 | -34.31548 | 141.56720 | 34295 ft | 425 kts | 269° |
| 2026-04-22 03:42 | -34.31523 | 141.49610 | 34297 ft | 425 kts | 269° |
| 2026-04-22 03:42 | -34.31495 | 141.42452 | 34295 ft | 425 kts | 269° |
| 2026-04-22 03:43 | -34.31458 | 141.35287 | 34294 ft | 426 kts | 269° |
| 2026-04-22 03:43 | -34.31416 | 141.28100 | 34298 ft | 426 kts | 269° |
| 2026-04-22 03:44 | -34.31371 | 141.20928 | 34283 ft | 426 kts | 269° |
| 2026-04-22 03:44 | -34.31323 | 141.13762 | 34284 ft | 426 kts | 269° |
| 2026-04-22 03:45 | -34.31271 | 141.06587 | 34279 ft | 427 kts | 269° |
| 2026-04-22 03:45 | -34.31216 | 140.99407 | 34283 ft | 427 kts | 269° |
| 2026-04-22 03:46 | -34.31156 | 140.92266 | 34281 ft | 427 kts | 269° |
| 2026-04-22 03:46 | -34.31090 | 140.85090 | 34274 ft | 427 kts | 269° |
| 2026-04-22 03:47 | -34.31020 | 140.77900 | 34279 ft | 427 kts | 269° |
| 2026-04-22 03:47 | -34.30943 | 140.70711 | 34278 ft | 427 kts | 269° |
| 2026-04-22 03:48 | -34.30865 | 140.63564 | 34275 ft | 427 kts | 269° |
| 2026-04-22 03:48 | -34.30781 | 140.56370 | 34272 ft | 428 kts | 269° |
| 2026-04-22 03:49 | -34.30694 | 140.49172 | 34269 ft | 428 kts | 270° |
| 2026-04-22 03:49 | -34.30602 | 140.41981 | 34261 ft | 428 kts | 270° |
| 2026-04-22 03:50 | -34.30503 | 140.34776 | 34268 ft | 428 kts | 270° |
| 2026-04-22 03:50 | -34.30407 | 140.27565 | 34267 ft | 429 kts | 270° |
| 2026-04-22 03:51 | -34.30304 | 140.20346 | 34264 ft | 429 kts | 270° |
| 2026-04-22 03:51 | -34.30197 | 140.13126 | 34260 ft | 429 kts | 270° |
| 2026-04-22 03:52 | -34.30084 | 140.05907 | 34256 ft | 429 kts | 270° |
| 2026-04-22 03:52 | -34.29962 | 139.98681 | 34256 ft | 429 kts | 270° |
| 2026-04-22 03:53 | -34.29844 | 139.91501 | 34253 ft | 429 kts | 270° |
| 2026-04-22 03:53 | -34.29721 | 139.84277 | 34254 ft | 429 kts | 270° |
| 2026-04-22 03:54 | -34.29595 | 139.77053 | 34255 ft | 429 kts | 270° |
| 2026-04-22 03:54 | -34.29467 | 139.69848 | 34248 ft | 427 kts | 270° |
| 2026-04-22 03:55 | -34.29333 | 139.62704 | 34249 ft | 427 kts | 270° |
| 2026-04-22 03:55 | -34.29187 | 139.55520 | 34248 ft | 427 kts | 270° |
| 2026-04-22 03:56 | -34.29045 | 139.48342 | 34244 ft | 426 kts | 270° |
| 2026-04-22 03:56 | -34.28898 | 139.41169 | 34245 ft | 426 kts | 270° |
| 2026-04-22 03:57 | -34.28742 | 139.33985 | 34247 ft | 426 kts | 270° |
| 2026-04-22 03:57 | -34.28587 | 139.26817 | 34248 ft | 426 kts | 270° |
| 2026-04-22 03:58 | -34.28426 | 139.19664 | 34251 ft | 425 kts | 270° |
| 2026-04-22 03:58 | -34.28263 | 139.12627 | 34258 ft | 425 kts | 271° |
| 2026-04-22 03:59 | -34.28083 | 139.05489 | 34245 ft | 425 kts | 270° |
| 2026-04-22 03:59 | -34.27908 | 138.98347 | 34252 ft | 424 kts | 271° |
| 2026-04-22 04:00 | -34.27728 | 138.91215 | 34256 ft | 424 kts | 271° |
| 2026-04-22 04:00 | -34.27543 | 138.84078 | 34255 ft | 424 kts | 271° |
| 2026-04-22 04:01 | -34.27359 | 138.76949 | 34254 ft | 425 kts | 270° |
| 2026-04-22 04:01 | -34.27174 | 138.69858 | 34257 ft | 423 kts | 271° |
| 2026-04-22 04:02 | -34.26977 | 138.62701 | 34249 ft | 423 kts | 270° |
| 2026-04-22 04:02 | -34.26785 | 138.55635 | 34251 ft | 423 kts | 270° |
| 2026-04-22 04:03 | -34.26585 | 138.48522 | 34248 ft | 423 kts | 271° |
| 2026-04-22 04:03 | -34.26376 | 138.41411 | 34248 ft | 422 kts | 270° |
| 2026-04-22 04:04 | -34.26162 | 138.34326 | 34244 ft | 422 kts | 270° |
| 2026-04-22 04:04 | -34.25949 | 138.27236 | 34245 ft | 422 kts | 270° |
| 2026-04-22 04:05 | -34.25735 | 138.20195 | 34261 ft | 420 kts | 270° |
| 2026-04-22 04:05 | -34.25511 | 138.13122 | 34252 ft | 419 kts | 270° |
| 2026-04-22 04:06 | -34.25292 | 138.06129 | 34252 ft | 418 kts | 270° |
| 2026-04-22 04:06 | -34.25063 | 137.99094 | 34245 ft | 418 kts | 270° |
| 2026-04-22 04:07 | -34.24826 | 137.92071 | 34250 ft | 418 kts | 270° |
| 2026-04-22 04:07 | -34.24592 | 137.85042 | 34256 ft | 418 kts | 270° |
| 2026-04-22 04:08 | -34.24355 | 137.78011 | 34250 ft | 418 kts | 270° |
| 2026-04-22 04:08 | -34.24106 | 137.70993 | 34268 ft | 418 kts | 271° |
| 2026-04-22 04:09 | -34.23856 | 137.63963 | 34262 ft | 419 kts | 270° |
| 2026-04-22 04:09 | -34.23608 | 137.56931 | 34261 ft | 420 kts | 270° |
| 2026-04-22 04:10 | -34.23356 | 137.49871 | 34268 ft | 420 kts | 271° |
| 2026-04-22 04:10 | -34.23094 | 137.42814 | 34270 ft | 420 kts | 271° |
| 2026-04-22 04:11 | -34.22824 | 137.35757 | 34256 ft | 421 kts | 271° |
| 2026-04-22 04:11 | -34.22553 | 137.28732 | 34263 ft | 421 kts | 271° |
| 2026-04-22 04:12 | -34.22280 | 137.21663 | 34263 ft | 421 kts | 271° |
| 2026-04-22 04:12 | -34.22007 | 137.14600 | 34263 ft | 421 kts | 271° |
| 2026-04-22 04:13 | -34.21726 | 137.07531 | 34265 ft | 421 kts | 271° |
| 2026-04-22 04:13 | -34.21434 | 137.00455 | 34265 ft | 421 kts | 271° |
| 2026-04-22 04:14 | -34.21146 | 136.93388 | 34263 ft | 422 kts | 271° |
| 2026-04-22 04:14 | -34.20850 | 136.86314 | 34266 ft | 422 kts | 271° |
| 2026-04-22 04:15 | -34.20551 | 136.79233 | 34268 ft | 422 kts | 271° |
| 2026-04-22 04:15 | -34.20248 | 136.72157 | 34267 ft | 423 kts | 271° |
| 2026-04-22 04:16 | -34.19788 | 136.61492 | 34268 ft | 423 kts | 271° |
| 2026-04-22 04:17 | -34.19472 | 136.54436 | 34262 ft | 423 kts | 271° |
| 2026-04-22 04:17 | -34.19155 | 136.47329 | 34267 ft | 424 kts | 271° |
| 2026-04-22 04:18 | -34.18832 | 136.40226 | 34268 ft | 424 kts | 271° |
| 2026-04-22 04:18 | -34.18504 | 136.33101 | 34269 ft | 424 kts | 271° |
| 2026-04-22 04:19 | -34.18173 | 136.25986 | 34268 ft | 424 kts | 271° |
| 2026-04-22 04:19 | -34.17840 | 136.18856 | 34277 ft | 425 kts | 271° |
| 2026-04-22 04:20 | -34.17508 | 136.11719 | 34266 ft | 425 kts | 271° |
| 2026-04-22 04:20 | -34.17163 | 136.04589 | 34271 ft | 425 kts | 271° |
| 2026-04-22 04:21 | -34.16809 | 135.97449 | 34258 ft | 425 kts | 271° |
| 2026-04-22 04:21 | -34.16451 | 135.90359 | 34255 ft | 425 kts | 271° |
| 2026-04-22 04:22 | -34.16095 | 135.83224 | 34249 ft | 426 kts | 271° |
| 2026-04-22 04:22 | -34.15735 | 135.76090 | 34250 ft | 426 kts | 271° |
| 2026-04-22 04:23 | -34.15369 | 135.68954 | 34248 ft | 426 kts | 271° |
| 2026-04-22 04:23 | -34.15008 | 135.61810 | 34247 ft | 426 kts | 271° |
| 2026-04-22 04:24 | -34.14637 | 135.54675 | 34247 ft | 425 kts | 271° |
| 2026-04-22 04:24 | -34.14312 | 135.48756 | 34252 ft | 425 kts | 271° |
| 2026-04-22 04:25 | -34.13858 | 135.40425 | 34252 ft | 425 kts | 271° |
| 2026-04-22 04:25 | -34.13472 | 135.33340 | 34250 ft | 425 kts | 271° |
| 2026-04-22 04:26 | -34.13171 | 135.27376 | 34266 ft | 425 kts | 271° |
| 2026-04-22 04:26 | -34.12829 | 135.20301 | 34266 ft | 425 kts | 271° |
| 2026-04-22 04:27 | -34.12476 | 135.13176 | 34262 ft | 425 kts | 271° |
| 2026-04-22 04:27 | -34.12114 | 135.06060 | 34267 ft | 425 kts | 271° |
| 2026-04-22 04:28 | -34.11733 | 134.98944 | 34268 ft | 424 kts | 270° |
| 2026-04-22 04:28 | -34.11360 | 134.91910 | 34269 ft | 420 kts | 270° |
| 2026-04-22 04:29 | -34.10988 | 134.84880 | 34262 ft | 420 kts | 270° |
| 2026-04-22 04:29 | -34.10618 | 134.77844 | 34264 ft | 420 kts | 270° |
| 2026-04-22 04:30 | -34.10245 | 134.70817 | 34257 ft | 420 kts | 270° |
| 2026-04-22 04:30 | -34.09852 | 134.63772 | 34267 ft | 420 kts | 271° |
| 2026-04-22 04:31 | -34.09459 | 134.56748 | 34273 ft | 418 kts | 270° |
| 2026-04-22 04:31 | -34.09068 | 134.49749 | 34266 ft | 418 kts | 270° |
| 2026-04-22 04:32 | -34.08675 | 134.42787 | 34268 ft | 418 kts | 270° |
| 2026-04-22 04:32 | -34.08272 | 134.35782 | 34262 ft | 417 kts | 270° |
| 2026-04-22 04:33 | -34.07866 | 134.28797 | 34267 ft | 417 kts | 270° |
| 2026-04-22 04:33 | -34.07454 | 134.21808 | 34272 ft | 417 kts | 270° |
| 2026-04-22 04:34 | -34.07047 | 134.14897 | 34277 ft | 415 kts | 270° |
| 2026-04-22 04:34 | -34.06637 | 134.07905 | 34271 ft | 415 kts | 270° |
| 2026-04-22 04:35 | -34.06226 | 134.01000 | 34272 ft | 415 kts | 270° |
| 2026-04-22 04:35 | -34.05811 | 133.94072 | 34275 ft | 414 kts | 270° |
| 2026-04-22 04:36 | -34.05393 | 133.87151 | 34272 ft | 414 kts | 270° |
| 2026-04-22 04:36 | -34.04967 | 133.80224 | 34272 ft | 413 kts | 270° |
| 2026-04-22 04:37 | -34.04540 | 133.73324 | 34274 ft | 413 kts | 270° |
| 2026-04-22 04:37 | -34.04098 | 133.66462 | 34276 ft | 413 kts | 270° |
| 2026-04-22 04:38 | -34.03655 | 133.59566 | 34267 ft | 411 kts | 269° |
| 2026-04-22 04:38 | -34.03218 | 133.52697 | 34274 ft | 411 kts | 269° |
| 2026-04-22 04:39 | -34.02780 | 133.45827 | 34271 ft | 411 kts | 269° |
| 2026-04-22 04:39 | -34.02330 | 133.38966 | 34275 ft | 409 kts | 269° |
| 2026-04-22 04:40 | -34.01878 | 133.32121 | 34277 ft | 409 kts | 269° |
| 2026-04-22 04:40 | -34.01426 | 133.25278 | 34274 ft | 409 kts | 269° |
| 2026-04-22 04:41 | -34.00974 | 133.18442 | 34280 ft | 408 kts | 269° |
| 2026-04-22 04:41 | -34.00520 | 133.11665 | 34278 ft | 408 kts | 269° |
| 2026-04-22 04:42 | -34.00062 | 133.04845 | 34275 ft | 408 kts | 269° |
| 2026-04-22 04:42 | -33.99600 | 132.98025 | 34277 ft | 407 kts | 269° |
| 2026-04-22 04:43 | -33.99122 | 132.91216 | 34270 ft | 407 kts | 270° |
| 2026-04-22 04:43 | -33.98646 | 132.84411 | 34269 ft | 407 kts | 269° |
| 2026-04-22 04:44 | -33.98169 | 132.77614 | 34274 ft | 407 kts | 269° |
| 2026-04-22 04:44 | -33.97691 | 132.70804 | 34271 ft | 407 kts | 269° |
| 2026-04-22 04:45 | -33.97199 | 132.63992 | 34274 ft | 407 kts | 269° |
| 2026-04-22 04:45 | -33.96714 | 132.57202 | 34275 ft | 406 kts | 270° |
| 2026-04-22 04:46 | -33.96234 | 132.50474 | 34270 ft | 406 kts | 270° |
| 2026-04-22 04:46 | -33.95740 | 132.43695 | 34273 ft | 406 kts | 270° |
| 2026-04-22 04:47 | -33.95240 | 132.36910 | 34272 ft | 406 kts | 270° |
| 2026-04-22 04:47 | -33.94744 | 132.30126 | 34271 ft | 406 kts | 270° |
| 2026-04-22 04:48 | -33.94244 | 132.23347 | 34269 ft | 406 kts | 270° |
| 2026-04-22 04:48 | -33.93729 | 132.16561 | 34276 ft | 406 kts | 270° |
| 2026-04-22 04:49 | -33.93217 | 132.09775 | 34272 ft | 406 kts | 270° |
| 2026-04-22 04:49 | -33.92703 | 132.02995 | 34270 ft | 407 kts | 270° |
| 2026-04-22 04:50 | -33.92176 | 131.96248 | 34278 ft | 407 kts | 271° |
| 2026-04-22 04:50 | -33.91648 | 131.89460 | 34275 ft | 407 kts | 271° |
| 2026-04-22 04:51 | -33.91122 | 131.82664 | 34272 ft | 407 kts | 271° |
| 2026-04-22 04:51 | -33.90592 | 131.75881 | 34277 ft | 407 kts | 271° |
| 2026-04-22 04:52 | -33.90058 | 131.69095 | 34263 ft | 407 kts | 271° |
| 2026-04-22 04:52 | -33.89531 | 131.62304 | 34272 ft | 407 kts | 271° |
| 2026-04-22 04:53 | -33.88979 | 131.55502 | 34269 ft | 408 kts | 271° |
| 2026-04-22 04:53 | -33.88425 | 131.48710 | 34275 ft | 408 kts | 271° |
| 2026-04-22 04:54 | -33.87871 | 131.41915 | 34272 ft | 408 kts | 271° |
| 2026-04-22 04:54 | -33.87315 | 131.35119 | 34275 ft | 408 kts | 271° |
| 2026-04-22 04:55 | -33.86752 | 131.28366 | 34262 ft | 408 kts | 271° |
| 2026-04-22 04:55 | -33.86174 | 131.21562 | 34271 ft | 409 kts | 271° |
| 2026-04-22 04:56 | -33.85597 | 131.14756 | 34275 ft | 409 kts | 271° |
| 2026-04-22 04:56 | -33.85017 | 131.07948 | 34274 ft | 409 kts | 272° |
| 2026-04-22 04:57 | -33.84442 | 131.01157 | 34274 ft | 408 kts | 272° |
| 2026-04-22 04:57 | -33.83856 | 130.94351 | 34271 ft | 408 kts | 272° |
| 2026-04-22 04:58 | -33.83269 | 130.87597 | 34266 ft | 408 kts | 272° |
| 2026-04-22 04:58 | -33.82679 | 130.80805 | 34268 ft | 408 kts | 272° |
| 2026-04-22 04:59 | -33.82083 | 130.74011 | 34270 ft | 408 kts | 272° |
| 2026-04-22 04:59 | -33.81491 | 130.67314 | 34269 ft | 409 kts | 272° |
| 2026-04-22 05:00 | -33.80878 | 130.60522 | 34272 ft | 408 kts | 272° |
| 2026-04-22 05:00 | -33.80268 | 130.53739 | 34276 ft | 408 kts | 272° |
| 2026-04-22 05:01 | -33.79658 | 130.46957 | 34264 ft | 408 kts | 273° |
| 2026-04-22 05:01 | -33.79041 | 130.40147 | 34272 ft | 409 kts | 273° |
| 2026-04-22 05:02 | -33.78423 | 130.33357 | 34273 ft | 409 kts | 273° |
| 2026-04-22 05:02 | -33.77805 | 130.26613 | 34272 ft | 409 kts | 273° |
| 2026-04-22 05:03 | -33.77182 | 130.19861 | 34268 ft | 409 kts | 273° |
| 2026-04-22 05:03 | -33.76546 | 130.13012 | 34265 ft | 409 kts | 274° |
| 2026-04-22 05:04 | -33.75917 | 130.06223 | 34273 ft | 409 kts | 274° |
| 2026-04-22 05:04 | -33.75277 | 129.99439 | 34269 ft | 409 kts | 274° |
| 2026-04-22 05:05 | -33.74636 | 129.92648 | 34264 ft | 409 kts | 274° |
| 2026-04-22 05:05 | -33.73994 | 129.85910 | 34262 ft | 409 kts | 274° |
| 2026-04-22 05:06 | -33.73347 | 129.79118 | 34262 ft | 409 kts | 274° |
| 2026-04-22 05:06 | -33.72694 | 129.72334 | 34268 ft | 409 kts | 274° |
| 2026-04-22 05:07 | -33.72045 | 129.65609 | 34265 ft | 409 kts | 274° |
| 2026-04-22 05:07 | -33.71379 | 129.58768 | 34261 ft | 408 kts | 275° |
| 2026-04-22 05:08 | -33.70716 | 129.51995 | 34263 ft | 408 kts | 275° |
| 2026-04-22 05:08 | -33.70056 | 129.45261 | 34262 ft | 408 kts | 275° |
| 2026-04-22 05:09 | -33.69385 | 129.38498 | 34264 ft | 408 kts | 275° |
| 2026-04-22 05:09 | -33.68714 | 129.31738 | 34264 ft | 408 kts | 275° |
| 2026-04-22 05:10 | -33.68055 | 129.24976 | 34262 ft | 408 kts | 275° |
| 2026-04-22 05:10 | -33.67384 | 129.18219 | 34263 ft | 408 kts | 275° |
| 2026-04-22 05:11 | -33.66819 | 129.12608 | 34259 ft | 408 kts | 275° |
| 2026-04-22 05:11 | -33.66013 | 129.04712 | 34261 ft | 407 kts | 276° |
| 2026-04-22 05:12 | -33.65313 | 128.98007 | 34261 ft | 407 kts | 276° |
| 2026-04-22 05:12 | -33.64608 | 128.91254 | 34259 ft | 407 kts | 276° |
| 2026-04-22 05:13 | -33.64027 | 128.85647 | 34265 ft | 407 kts | 276° |
| 2026-04-22 05:13 | -33.63329 | 128.78895 | 34251 ft | 407 kts | 276° |
| 2026-04-22 05:14 | -33.62505 | 128.71049 | 34256 ft | 407 kts | 276° |
| 2026-04-22 05:14 | -33.62276 | 128.68873 | 34257 ft | 407 kts | 276° |
| 2026-04-22 05:29 | -33.62157 | 128.67731 | 34254 ft | 407 kts | 276° |
| 2026-04-22 05:30 | -33.61450 | 128.60997 | 34256 ft | 406 kts | 277° |
| 2026-04-22 05:30 | -33.60736 | 128.54272 | 34257 ft | 406 kts | 277° |
| 2026-04-22 05:31 | -33.60019 | 128.47546 | 34253 ft | 406 kts | 277° |
| 2026-04-22 05:31 | -33.59302 | 128.40819 | 34253 ft | 406 kts | 277° |
| 2026-04-22 05:32 | -33.58579 | 128.34097 | 34240 ft | 406 kts | 277° |
| 2026-04-22 05:32 | -33.57850 | 128.27366 | 34254 ft | 407 kts | 277° |
| 2026-04-22 05:33 | -33.57114 | 128.20629 | 34251 ft | 407 kts | 277° |
| 2026-04-22 05:33 | -33.56380 | 128.13899 | 34251 ft | 407 kts | 277° |
| 2026-04-22 05:34 | -33.55642 | 128.07172 | 34251 ft | 407 kts | 277° |
| 2026-04-22 05:34 | -33.54901 | 128.00450 | 34101 ft | 406 kts | 277° |
| 2026-04-22 05:35 | -33.54531 | 127.97081 | 33977 ft | 406 kts | 277° |
| 2026-04-22 05:35 | -33.54166 | 127.93759 | 33846 ft | 406 kts | 277° |
| 2026-04-22 05:35 | -33.53800 | 127.90410 | 33712 ft | 406 kts | 277° |
| 2026-04-22 05:35 | -33.53431 | 127.87057 | 33568 ft | 406 kts | 277° |
| 2026-04-22 05:36 | -33.53058 | 127.83708 | 33435 ft | 406 kts | 277° |
| 2026-04-22 05:36 | -33.52682 | 127.80356 | 33303 ft | 405 kts | 277° |
| 2026-04-22 05:36 | -33.52306 | 127.77002 | 33172 ft | 405 kts | 277° |
| 2026-04-22 05:36 | -33.51931 | 127.73653 | 33043 ft | 406 kts | 277° |
| 2026-04-22 05:37 | -33.51554 | 127.70300 | 32915 ft | 408 kts | 277° |
| 2026-04-22 05:37 | -33.51170 | 127.66887 | 32798 ft | 418 kts | 277° |
| 2026-04-22 05:37 | -33.50777 | 127.63396 | 32684 ft | 427 kts | 277° |
| 2026-04-22 05:37 | -33.50379 | 127.59862 | 32562 ft | 430 kts | 277° |
| 2026-04-22 05:38 | -33.49978 | 127.56312 | 32435 ft | 431 kts | 278° |
| 2026-04-22 05:38 | -33.49575 | 127.52753 | 32309 ft | 431 kts | 278° |
| 2026-04-22 05:38 | -33.48762 | 127.45625 | 32220 ft | 432 kts | 278° |
| 2026-04-22 05:39 | -33.47947 | 127.38498 | 32232 ft | 432 kts | 278° |
| 2026-04-22 05:39 | -33.47131 | 127.31402 | 32237 ft | 432 kts | 278° |
| 2026-04-22 05:40 | -33.46304 | 127.24283 | 32237 ft | 432 kts | 278° |
| 2026-04-22 05:40 | -33.45476 | 127.17160 | 32239 ft | 431 kts | 278° |
| 2026-04-22 05:41 | -33.44644 | 127.10047 | 32233 ft | 431 kts | 278° |
| 2026-04-22 05:41 | -33.43808 | 127.02918 | 32230 ft | 431 kts | 278° |
| 2026-04-22 05:42 | -33.42972 | 126.95816 | 32233 ft | 431 kts | 278° |
| 2026-04-22 05:42 | -33.42130 | 126.88706 | 32233 ft | 431 kts | 278° |
| 2026-04-22 05:43 | -33.41282 | 126.81609 | 32229 ft | 431 kts | 278° |
| 2026-04-22 05:43 | -33.40430 | 126.74510 | 32232 ft | 431 kts | 278° |
| 2026-04-22 05:44 | -33.39579 | 126.67430 | 32229 ft | 429 kts | 278° |
| 2026-04-22 05:44 | -33.38721 | 126.60351 | 32222 ft | 430 kts | 278° |
| 2026-04-22 05:45 | -33.37862 | 126.53325 | 32214 ft | 429 kts | 278° |
| 2026-04-22 05:45 | -33.37000 | 126.46264 | 32224 ft | 428 kts | 278° |
| 2026-04-22 05:46 | -33.36138 | 126.39212 | 32221 ft | 428 kts | 278° |
| 2026-04-22 05:46 | -33.35271 | 126.32169 | 32217 ft | 428 kts | 278° |
| 2026-04-22 05:47 | -33.34395 | 126.25117 | 32225 ft | 428 kts | 278° |
| 2026-04-22 05:47 | -33.33518 | 126.18085 | 32217 ft | 427 kts | 278° |
| 2026-04-22 05:48 | -33.32636 | 126.11047 | 32216 ft | 427 kts | 278° |
| 2026-04-22 05:48 | -33.31753 | 126.04025 | 32207 ft | 427 kts | 278° |
| 2026-04-22 05:49 | -33.30866 | 125.96997 | 32210 ft | 427 kts | 278° |
| 2026-04-22 05:49 | -33.29975 | 125.89982 | 32211 ft | 427 kts | 278° |
| 2026-04-22 05:50 | -33.29082 | 125.82970 | 32208 ft | 427 kts | 278° |
| 2026-04-22 05:50 | -33.28179 | 125.75950 | 32208 ft | 427 kts | 278° |
| 2026-04-22 05:51 | -33.27278 | 125.68953 | 32201 ft | 426 kts | 278° |
| 2026-04-22 05:51 | -33.26378 | 125.62000 | 32201 ft | 426 kts | 279° |
| 2026-04-22 05:52 | -33.25471 | 125.55017 | 32198 ft | 426 kts | 278° |
| 2026-04-22 05:52 | -33.24558 | 125.48027 | 32208 ft | 425 kts | 278° |
| 2026-04-22 05:53 | -33.23644 | 125.41039 | 32197 ft | 425 kts | 278° |
| 2026-04-22 05:53 | -33.22725 | 125.34060 | 32197 ft | 425 kts | 278° |
| 2026-04-22 05:54 | -33.21807 | 125.27085 | 32195 ft | 425 kts | 279° |
| 2026-04-22 05:54 | -33.20878 | 125.20110 | 32196 ft | 425 kts | 279° |
| 2026-04-22 05:55 | -33.19955 | 125.13185 | 32193 ft | 425 kts | 279° |
| 2026-04-22 05:55 | -33.19022 | 125.06217 | 32179 ft | 425 kts | 279° |
| 2026-04-22 05:56 | -33.18081 | 124.99248 | 32181 ft | 424 kts | 279° |
| 2026-04-22 05:56 | -33.17292 | 124.93445 | 32183 ft | 422 kts | 279° |
| 2026-04-22 05:57 | -33.16347 | 124.86534 | 32180 ft | 422 kts | 279° |
| 2026-04-22 05:57 | -33.15406 | 124.79665 | 32180 ft | 422 kts | 279° |
| 2026-04-22 05:58 | -33.14452 | 124.72742 | 32183 ft | 422 kts | 279° |
| 2026-04-22 05:58 | -33.13500 | 124.65851 | 32175 ft | 421 kts | 279° |
| 2026-04-22 05:59 | -33.12544 | 124.58969 | 32172 ft | 421 kts | 279° |
| 2026-04-22 05:59 | -33.11586 | 124.52083 | 32166 ft | 421 kts | 279° |
| 2026-04-22 06:00 | -33.10624 | 124.45212 | 32177 ft | 419 kts | 279° |
| 2026-04-22 06:00 | -33.09658 | 124.38352 | 32168 ft | 419 kts | 279° |
| 2026-04-22 06:01 | -33.08689 | 124.31502 | 32157 ft | 419 kts | 279° |
| 2026-04-22 06:01 | -33.07724 | 124.24687 | 32155 ft | 419 kts | 280° |
| 2026-04-22 06:02 | -33.06749 | 124.17840 | 32157 ft | 418 kts | 280° |
| 2026-04-22 06:02 | -33.05771 | 124.10987 | 32138 ft | 420 kts | 279° |
| 2026-04-22 06:03 | -33.04787 | 124.04124 | 32144 ft | 420 kts | 280° |
| 2026-04-22 06:03 | -33.03797 | 123.97258 | 32139 ft | 420 kts | 280° |
| 2026-04-22 06:04 | -33.02806 | 123.90411 | 32146 ft | 419 kts | 280° |
| 2026-04-22 06:04 | -33.01816 | 123.83571 | 32139 ft | 419 kts | 280° |
| 2026-04-22 06:05 | -33.00819 | 123.76737 | 32134 ft | 419 kts | 280° |
| 2026-04-22 06:05 | -32.99819 | 123.69899 | 32133 ft | 419 kts | 280° |
| 2026-04-22 06:06 | -32.98815 | 123.63066 | 32126 ft | 418 kts | 280° |
| 2026-04-22 06:06 | -32.97811 | 123.56290 | 32130 ft | 418 kts | 280° |
| 2026-04-22 06:07 | -32.96801 | 123.49470 | 32128 ft | 418 kts | 280° |
| 2026-04-22 06:07 | -32.95789 | 123.42655 | 32125 ft | 418 kts | 280° |
| 2026-04-22 06:08 | -32.94771 | 123.35841 | 32121 ft | 418 kts | 280° |
| 2026-04-22 06:08 | -32.93752 | 123.29024 | 32121 ft | 418 kts | 280° |
| 2026-04-22 06:09 | -32.92726 | 123.22208 | 32119 ft | 418 kts | 280° |
| 2026-04-22 06:09 | -32.91696 | 123.15395 | 32117 ft | 418 kts | 281° |
| 2026-04-22 06:10 | -32.90663 | 123.08589 | 32116 ft | 417 kts | 281° |
| 2026-04-22 06:10 | -32.89628 | 123.01793 | 32110 ft | 417 kts | 281° |
| 2026-04-22 06:11 | -32.88597 | 122.95033 | 32110 ft | 417 kts | 281° |
| 2026-04-22 06:11 | -32.87556 | 122.88247 | 32120 ft | 417 kts | 281° |
| 2026-04-22 06:12 | -32.86513 | 122.81469 | 32104 ft | 416 kts | 281° |
| 2026-04-22 06:12 | -32.85467 | 122.74693 | 32103 ft | 416 kts | 281° |
| 2026-04-22 06:13 | -32.84419 | 122.67921 | 32102 ft | 416 kts | 281° |
| 2026-04-22 06:13 | -32.83365 | 122.61142 | 32105 ft | 417 kts | 281° |
| 2026-04-22 06:14 | -32.82307 | 122.54376 | 32097 ft | 416 kts | 281° |
| 2026-04-22 06:14 | -32.81245 | 122.47608 | 32093 ft | 416 kts | 281° |
| 2026-04-22 06:15 | -32.80180 | 122.40844 | 32093 ft | 416 kts | 281° |
| 2026-04-22 06:15 | -32.79113 | 122.34081 | 32096 ft | 416 kts | 281° |
| 2026-04-22 06:16 | -32.78044 | 122.27330 | 32089 ft | 416 kts | 281° |
| 2026-04-22 06:16 | -32.76973 | 122.20600 | 32085 ft | 416 kts | 281° |
| 2026-04-22 06:17 | -32.75907 | 122.13857 | 32064 ft | 416 kts | 281° |
| 2026-04-22 06:17 | -32.74820 | 122.07095 | 32086 ft | 417 kts | 281° |
| 2026-04-22 06:18 | -32.73728 | 122.00334 | 32078 ft | 416 kts | 281° |
| 2026-04-22 06:18 | -32.72638 | 121.93577 | 32075 ft | 416 kts | 281° |
| 2026-04-22 06:19 | -32.71568 | 121.86852 | 32072 ft | 416 kts | 279° |
| 2026-04-22 06:19 | -32.70832 | 121.80024 | 32068 ft | 417 kts | 278° |
| 2026-04-22 06:20 | -32.70137 | 121.73204 | 32067 ft | 415 kts | 278° |
| 2026-04-22 06:20 | -32.69428 | 121.66388 | 32066 ft | 415 kts | 278° |
| 2026-04-22 06:21 | -32.68712 | 121.59579 | 32061 ft | 415 kts | 278° |
| 2026-04-22 06:21 | -32.67995 | 121.52761 | 32057 ft | 416 kts | 278° |
| 2026-04-22 06:22 | -32.67277 | 121.45949 | 32061 ft | 416 kts | 278° |
| 2026-04-22 06:22 | -32.66559 | 121.39185 | 32052 ft | 416 kts | 278° |
| 2026-04-22 06:23 | -32.65830 | 121.32376 | 32049 ft | 416 kts | 278° |
| 2026-04-22 06:23 | -32.65101 | 121.25560 | 32050 ft | 416 kts | 278° |
| 2026-04-22 06:24 | -32.63999 | 121.15361 | 32049 ft | 416 kts | 278° |
| 2026-04-22 06:25 | -32.63259 | 121.08548 | 32044 ft | 416 kts | 278° |
| 2026-04-22 06:25 | -32.62517 | 121.01744 | 32045 ft | 416 kts | 278° |
| 2026-04-22 06:26 | -32.61779 | 120.94983 | 32042 ft | 415 kts | 279° |
| 2026-04-22 06:26 | -32.61028 | 120.88190 | 32037 ft | 415 kts | 279° |
| 2026-04-22 06:27 | -32.60273 | 120.81398 | 32034 ft | 415 kts | 279° |
| 2026-04-22 06:27 | -32.59516 | 120.74606 | 32033 ft | 415 kts | 279° |
| 2026-04-22 06:28 | -32.58755 | 120.67803 | 32032 ft | 415 kts | 279° |
| 2026-04-22 06:28 | -32.57989 | 120.61008 | 32029 ft | 415 kts | 279° |
| 2026-04-22 06:29 | -32.57224 | 120.54257 | 32029 ft | 415 kts | 279° |
| 2026-04-22 06:29 | -32.56451 | 120.47435 | 32021 ft | 415 kts | 279° |
| 2026-04-22 06:30 | -32.55683 | 120.40684 | 32025 ft | 415 kts | 279° |
| 2026-04-22 06:30 | -32.54901 | 120.33884 | 32018 ft | 416 kts | 279° |
| 2026-04-22 06:30 | -32.54555 | 120.30542 | 32013 ft | 400 kts | 278° |
| 2026-04-22 06:31 | -32.54260 | 120.27304 | 31998 ft | 391 kts | 278° |
| 2026-04-22 06:31 | -32.53675 | 120.20945 | 32011 ft | 390 kts | 278° |
| 2026-04-22 06:32 | -32.53076 | 120.14552 | 32013 ft | 390 kts | 278° |
| 2026-04-22 06:32 | -32.52469 | 120.08159 | 32023 ft | 389 kts | 278° |
| 2026-04-22 06:33 | -32.51860 | 120.01781 | 32015 ft | 389 kts | 278° |
| 2026-04-22 06:33 | -32.51238 | 119.95310 | 32018 ft | 402 kts | 278° |
| 2026-04-22 06:34 | -32.50603 | 119.88711 | 32004 ft | 403 kts | 278° |
| 2026-04-22 06:34 | -32.49964 | 119.82106 | 32020 ft | 403 kts | 278° |
| 2026-04-22 06:35 | -32.49324 | 119.75556 | 32006 ft | 403 kts | 278° |
| 2026-04-22 06:35 | -32.48672 | 119.68925 | 31996 ft | 403 kts | 278° |
| 2026-04-22 06:36 | -32.48029 | 119.62367 | 32001 ft | 403 kts | 278° |
| 2026-04-22 06:36 | -32.47373 | 119.55766 | 32001 ft | 403 kts | 278° |
| 2026-04-22 06:37 | -32.46716 | 119.49181 | 31998 ft | 403 kts | 278° |
| 2026-04-22 06:37 | -32.46053 | 119.42588 | 31991 ft | 403 kts | 278° |
| 2026-04-22 06:38 | -32.45389 | 119.36003 | 31998 ft | 403 kts | 278° |
| 2026-04-22 06:38 | -32.44725 | 119.29421 | 31998 ft | 403 kts | 278° |
| 2026-04-22 06:39 | -32.44054 | 119.22834 | 32007 ft | 402 kts | 279° |
| 2026-04-22 06:39 | -32.43379 | 119.16257 | 31997 ft | 402 kts | 279° |
| 2026-04-22 06:40 | -32.42701 | 119.09680 | 31993 ft | 402 kts | 279° |
| 2026-04-22 06:40 | -32.42024 | 119.03102 | 31992 ft | 402 kts | 279° |
| 2026-04-22 06:41 | -32.41458 | 118.97643 | 31989 ft | 402 kts | 279° |
| 2026-04-22 06:41 | -32.40772 | 118.91067 | 31998 ft | 402 kts | 279° |
| 2026-04-22 06:42 | -32.40081 | 118.84493 | 31991 ft | 402 kts | 279° |
| 2026-04-22 06:42 | -32.39385 | 118.77926 | 31988 ft | 402 kts | 279° |
| 2026-04-22 06:43 | -32.38694 | 118.71385 | 31986 ft | 402 kts | 279° |
| 2026-04-22 06:43 | -32.37994 | 118.64813 | 31993 ft | 402 kts | 279° |
| 2026-04-22 06:44 | -32.37287 | 118.58214 | 31982 ft | 402 kts | 279° |
| 2026-04-22 06:44 | -32.36585 | 118.51692 | 31986 ft | 402 kts | 279° |
| 2026-04-22 06:45 | -32.35876 | 118.45129 | 31988 ft | 402 kts | 279° |
| 2026-04-22 06:45 | -32.35161 | 118.38566 | 31977 ft | 402 kts | 279° |
| 2026-04-22 06:46 | -32.34445 | 118.32012 | 31983 ft | 401 kts | 279° |
| 2026-04-22 06:46 | -32.33723 | 118.25455 | 31985 ft | 401 kts | 279° |
| 2026-04-22 06:47 | -32.33003 | 118.18907 | 31988 ft | 401 kts | 279° |
| 2026-04-22 06:47 | -32.32281 | 118.12400 | 31986 ft | 402 kts | 279° |
| 2026-04-22 06:48 | -32.31547 | 118.05812 | 31991 ft | 401 kts | 280° |
| 2026-04-22 06:48 | -32.30820 | 117.99321 | 31984 ft | 400 kts | 280° |
| 2026-04-22 06:49 | -32.30088 | 117.92795 | 31982 ft | 400 kts | 280° |
| 2026-04-22 06:49 | -32.29353 | 117.86273 | 31953 ft | 397 kts | 280° |
| 2026-04-22 06:49 | -32.28984 | 117.83024 | 31602 ft | 405 kts | 280° |
| 2026-04-22 06:50 | -32.28602 | 117.79686 | 31333 ft | 414 kts | 280° |
| 2026-04-22 06:50 | -32.28215 | 117.76297 | 31082 ft | 416 kts | 280° |
| 2026-04-22 06:50 | -32.27827 | 117.72903 | 30839 ft | 418 kts | 280° |
| 2026-04-22 06:50 | -32.27438 | 117.69503 | 30578 ft | 419 kts | 280° |
| 2026-04-22 06:51 | -32.27045 | 117.66074 | 30343 ft | 420 kts | 280° |
| 2026-04-22 06:51 | -32.26651 | 117.62650 | 30108 ft | 421 kts | 280° |
| 2026-04-22 06:51 | -32.26263 | 117.59253 | 29839 ft | 423 kts | 280° |
| 2026-04-22 06:51 | -32.25870 | 117.55802 | 29455 ft | 421 kts | 280° |
| 2026-04-22 06:52 | -32.25484 | 117.52382 | 28667 ft | 420 kts | 280° |
| 2026-04-22 06:52 | -32.25095 | 117.48973 | 27825 ft | 419 kts | 280° |
| 2026-04-22 06:52 | -32.24701 | 117.45548 | 27070 ft | 418 kts | 280° |
| 2026-04-22 06:52 | -32.24307 | 117.42151 | 26337 ft | 417 kts | 280° |
| 2026-04-22 06:53 | -32.23912 | 117.38773 | 25651 ft | 414 kts | 280° |
| 2026-04-22 06:53 | -32.23511 | 117.35410 | 25002 ft | 412 kts | 280° |
| 2026-04-22 06:53 | -32.23110 | 117.32073 | 24354 ft | 409 kts | 280° |
| 2026-04-22 06:53 | -32.22712 | 117.28754 | 23713 ft | 407 kts | 280° |
| 2026-04-22 06:54 | -32.22318 | 117.25448 | 23002 ft | 405 kts | 280° |
| 2026-04-22 06:54 | -32.21927 | 117.22158 | 22301 ft | 403 kts | 280° |
| 2026-04-22 06:54 | -32.21540 | 117.18890 | 21603 ft | 401 kts | 280° |
| 2026-04-22 06:54 | -32.21153 | 117.15630 | 20929 ft | 399 kts | 281° |
| 2026-04-22 06:55 | -32.20768 | 117.12399 | 20269 ft | 396 kts | 281° |
| 2026-04-22 06:55 | -32.20390 | 117.09231 | 19639 ft | 393 kts | 281° |
| 2026-04-22 06:55 | -32.20008 | 117.06039 | 19011 ft | 391 kts | 281° |
| 2026-04-22 06:55 | -32.19629 | 117.02867 | 18415 ft | 388 kts | 281° |
| 2026-04-22 06:56 | -32.19251 | 116.99727 | 17744 ft | 386 kts | 281° |
| 2026-04-22 06:56 | -32.18875 | 116.96605 | 17113 ft | 383 kts | 281° |
| 2026-04-22 06:56 | -32.18501 | 116.93501 | 16493 ft | 380 kts | 281° |
| 2026-04-22 06:56 | -32.18129 | 116.90427 | 15890 ft | 377 kts | 281° |
| 2026-04-22 06:57 | -32.17750 | 116.87369 | 15318 ft | 374 kts | 281° |
| 2026-04-22 06:57 | -32.17357 | 116.84336 | 14765 ft | 372 kts | 282° |
| 2026-04-22 06:57 | -32.16965 | 116.81327 | 14175 ft | 371 kts | 282° |
| 2026-04-22 06:57 | -32.16571 | 116.78323 | 13588 ft | 369 kts | 282° |
| 2026-04-22 06:58 | -32.16186 | 116.75372 | 13151 ft | 357 kts | 282° |
| 2026-04-22 06:58 | -32.15815 | 116.72506 | 12998 ft | 352 kts | 282° |
| 2026-04-22 06:58 | -32.15442 | 116.69654 | 12969 ft | 352 kts | 282° |
| 2026-04-22 06:58 | -32.15081 | 116.66869 | 12962 ft | 333 kts | 282° |
| 2026-04-22 06:59 | -32.14740 | 116.64236 | 12960 ft | 314 kts | 282° |
| 2026-04-22 06:59 | -32.14420 | 116.61762 | 12967 ft | 296 kts | 283° |
| 2026-04-22 06:59 | -32.14110 | 116.59430 | 12922 ft | 280 kts | 283° |
| 2026-04-22 06:59 | -32.13814 | 116.57203 | 12765 ft | 269 kts | 283° |
| 2026-04-22 07:00 | -32.13526 | 116.55055 | 12381 ft | 267 kts | 283° |
| 2026-04-22 07:00 | -32.13236 | 116.52888 | 11932 ft | 268 kts | 283° |
| 2026-04-22 07:00 | -32.12946 | 116.50721 | 11493 ft | 267 kts | 283° |
| 2026-04-22 07:00 | -32.12656 | 116.48547 | 11073 ft | 267 kts | 283° |
| 2026-04-22 07:01 | -32.12367 | 116.46382 | 10675 ft | 267 kts | 283° |
| 2026-04-22 07:01 | -32.12079 | 116.44224 | 10283 ft | 266 kts | 283° |
| 2026-04-22 07:01 | -32.11792 | 116.42070 | 9895 ft | 265 kts | 283° |
| 2026-04-22 07:01 | -32.11504 | 116.39923 | 9454 ft | 265 kts | 283° |
| 2026-04-22 07:02 | -32.11219 | 116.37803 | 9026 ft | 264 kts | 283° |
| 2026-04-22 07:02 | -32.10930 | 116.35663 | 8601 ft | 264 kts | 283° |
| 2026-04-22 07:02 | -32.10638 | 116.33500 | 8172 ft | 264 kts | 283° |
| 2026-04-22 07:02 | -32.10354 | 116.31388 | 7733 ft | 264 kts | 283° |
| 2026-04-22 07:03 | -32.10070 | 116.29261 | 7205 ft | 262 kts | 283° |
| 2026-04-22 07:03 | -32.09788 | 116.27101 | 6655 ft | 264 kts | 283° |
| 2026-04-22 07:03 | -32.09520 | 116.24977 | 6246 ft | 265 kts | 283° |
| 2026-04-22 07:03 | -32.09256 | 116.22840 | 5978 ft | 259 kts | 284° |
| 2026-04-22 07:04 | -32.08904 | 116.20797 | 5792 ft | 250 kts | 284° |
| 2026-04-22 07:04 | -32.08570 | 116.18810 | 5595 ft | 243 kts | 285° |
| 2026-04-22 07:04 | -32.08212 | 116.16904 | 5418 ft | 234 kts | 286° |
| 2026-04-22 07:04 | -32.07858 | 116.15062 | 5244 ft | 225 kts | 285° |
| 2026-04-22 07:05 | -32.07533 | 116.13310 | 5124 ft | 209 kts | 285° |
| 2026-04-22 07:05 | -32.07241 | 116.11713 | 5026 ft | 192 kts | 285° |
| 2026-04-22 07:05 | -32.06966 | 116.10188 | 4609 ft | 189 kts | 284° |
| 2026-04-22 07:05 | -32.06690 | 116.08674 | 4132 ft | 188 kts | 285° |
| 2026-04-22 07:06 | -32.06418 | 116.07198 | 3779 ft | 182 kts | 285° |
| 2026-04-22 07:06 | -32.06154 | 116.05759 | 3449 ft | 176 kts | 285° |
| 2026-04-22 07:06 | -32.05896 | 116.04369 | 3112 ft | 171 kts | 285° |
| 2026-04-22 07:06 | -32.05642 | 116.03025 | 2840 ft | 167 kts | 284° |
| 2026-04-22 07:07 | -32.05387 | 116.01705 | 2633 ft | 164 kts | 285° |
| 2026-04-22 07:07 | -32.05112 | 116.00327 | 2505 ft | 178 kts | 285° |
| 2026-04-22 07:07 | -32.04864 | 115.99001 | 2465 ft | 154 kts | 284° |
| 2026-04-22 07:07 | -32.04541 | 115.97838 | 2464 ft | 148 kts | 298° |
| 2026-04-22 07:08 | -32.03978 | 115.96815 | 2451 ft | 149 kts | 309° |
| 2026-04-22 07:08 | -32.03242 | 115.95960 | 2008 ft | 153 kts | 320° |
| 2026-04-22 07:08 | -32.02290 | 115.95274 | 1419 ft | 167 kts | 333° |
| 2026-04-22 07:08 | -32.01183 | 115.94876 | 1106 ft | 164 kts | 348° |
| 2026-04-22 07:09 | -32.00081 | 115.94806 | 895 ft | 153 kts | 0° |
| 2026-04-22 07:09 | -31.99048 | 115.95023 | 714 ft | 152 kts | 11° |
| 2026-04-22 07:09 | -31.98025 | 115.95354 | 567 ft | 152 kts | 9° |
| 2026-04-22 07:09 | -31.96998 | 115.95640 | 329 ft | 154 kts | 9° |
| 2026-04-22 07:10 | -31.95921 | 115.95950 | 106 ft | 159 kts | 14° |
| 2026-04-22 07:10 | -31.94875 | 115.96258 | 54 ft | 141 kts | 15° |
| 2026-04-22 07:10 | -31.94223 | 115.96451 | 55 ft | 53 kts | 15° |
| 2026-04-22 07:10 | -31.93886 | 115.96546 | 52 ft | 49 kts | 14° |
| 2026-04-22 07:11 | -31.93582 | 115.96637 | 53 ft | 26 kts | 14° |
| 2026-04-22 07:11 | -31.93454 | 115.96749 | 53 ft | 24 kts | 69° |
| 2026-04-22 07:11 | -31.93383 | 115.96914 | 56 ft | 19 kts | 60° |
| 2026-04-22 07:11 | -31.93400 | 115.97044 | 55 ft | 20 kts | 180° |
| 2026-04-22 07:12 | -31.93540 | 115.97004 | 55 ft | 21 kts | 194° |
| 2026-04-22 07:12 | -31.93688 | 115.96957 | 56 ft | 23 kts | 194° |
| 2026-04-22 07:12 | -31.93848 | 115.96911 | 56 ft | 24 kts | 194° |
| 2026-04-22 07:12 | -31.94016 | 115.96863 | 55 ft | 26 kts | 194° |
| 2026-04-22 07:13 | -31.94177 | 115.96816 | 54 ft | 23 kts | 194° |
| 2026-04-22 07:13 | -31.94291 | 115.96782 | 52 ft | 5 kts | 194° |
| 2026-04-22 07:13 | -31.94328 | 115.96782 | 54 ft | 7 kts | 150° |
| 2026-04-22 07:13 | -31.94351 | 115.96835 | 54 ft | 9 kts | 113° |
| 2026-04-22 07:14 | -31.94364 | 115.96913 | 53 ft | 11 kts | 102° |
| 2026-04-22 07:14 | -31.94419 | 115.96934 | 55 ft | 13 kts | 206° |
| 2026-04-22 07:14 | -31.94429 | 115.96944 | 56 ft | 2 kts | 88° |
| 2026-04-22 07:14 | -31.94419 | 115.96951 | 55 ft | 0 kts | 8° |